createdAt,value
2022-10-09T00:01:29.658Z,10.35
2022-10-09T00:06:33.257Z,7.05
2022-10-09T00:16:39.505Z,7.18
2022-10-09T00:21:41.907Z,8.07
2022-10-09T00:26:44.265Z,7.28
2022-10-09T00:31:50.157Z,8.05
2022-10-09T00:36:52.739Z,8.55
2022-10-09T00:41:55.241Z,7.43
2022-10-09T00:46:58.949Z,9.65
2022-10-09T00:57:03.995Z,6.93
2022-10-09T01:02:07.949Z,9.02
2022-10-09T01:07:18.195Z,8.07
2022-10-09T01:12:23.203Z,11.00
2022-10-09T01:17:30.357Z,10.00
2022-10-09T01:22:41.089Z,9.35
2022-10-09T01:27:44.943Z,9.90
2022-10-09T01:32:49.757Z,11.45
2022-10-09T01:37:53.341Z,9.70
2022-10-09T01:42:57.192Z,11.18
2022-10-09T01:48:00.333Z,12.20
2022-10-09T01:53:04.905Z,10.10
2022-10-09T01:58:11.886Z,10.27
2022-10-09T02:03:15.695Z,9.52
2022-10-09T02:08:19.398Z,9.02
2022-10-09T02:18:27.998Z,11.27
2022-10-09T02:23:30.736Z,12.77
2022-10-09T02:28:33.472Z,10.80
2022-10-09T02:33:37.685Z,13.43
2022-10-09T02:38:40.042Z,13.90
2022-10-09T02:43:42.440Z,15.93
2022-10-09T02:48:46.254Z,15.38
2022-10-09T02:53:48.595Z,19.75
2022-10-09T02:58:51.040Z,15.20
2022-10-09T03:03:54.755Z,15.07
2022-10-09T03:13:59.530Z,17.83
2022-10-09T03:19:03.347Z,16.95
2022-10-09T03:24:05.742Z,18.05
2022-10-09T03:29:08.100Z,18.67
2022-10-09T03:34:12.727Z,19.50
2022-10-09T03:39:15.096Z,19.60
2022-10-09T03:44:17.489Z,19.75
2022-10-09T03:49:21.304Z,22.73
2022-10-09T03:54:23.710Z,23.77
2022-10-09T03:59:26.364Z,25.73
2022-10-09T04:04:30.087Z,23.92
2022-10-09T04:14:34.713Z,19.50
2022-10-09T04:19:38.473Z,22.17
2022-10-09T04:29:43.143Z,20.27
2022-10-09T04:34:46.829Z,22.17
2022-10-09T04:44:51.673Z,20.27
2022-10-09T04:49:55.532Z,22.88
2022-10-09T04:54:57.901Z,27.27
2022-10-09T05:00:00.334Z,27.85
2022-10-09T05:05:04.382Z,30.00
2022-10-09T05:10:07.508Z,30.58
2022-10-09T05:15:10.334Z,30.80
2022-10-09T05:20:14.193Z,31.03
2022-10-09T05:25:16.633Z,30.98
2022-10-09T05:30:19.154Z,31.70
2022-10-09T05:35:22.919Z,30.90
2022-10-09T05:40:29.078Z,30.90
2022-10-09T05:45:31.755Z,30.98
2022-10-09T05:50:35.522Z,32.90
2022-10-09T05:55:37.901Z,33.15
2022-10-09T06:00:40.282Z,33.50
2022-10-09T06:05:44.038Z,35.00
2022-10-09T06:10:46.413Z,32.67
2022-10-09T06:15:52.597Z,31.40
2022-10-09T06:20:57.064Z,32.10
2022-10-09T06:26:00.746Z,33.75
2022-10-09T06:36:10.288Z,29.65
2022-10-09T06:41:14.081Z,32.95
2022-10-09T06:46:16.539Z,37.10
2022-10-09T06:51:21.203Z,31.92
2022-10-09T06:56:24.797Z,34.03
2022-10-09T07:06:32.496Z,27.88
2022-10-09T07:11:36.184Z,27.25
2022-10-09T07:21:43.173Z,28.13
2022-10-09T07:26:46.410Z,16.52
2022-10-09T07:31:49.988Z,16.38
2022-10-09T07:41:55.862Z,9.50
2022-10-09T07:46:58.286Z,10.18
2022-10-09T07:52:00.657Z,10.00
2022-10-09T07:57:04.558Z,10.38
2022-10-09T08:02:07.028Z,10.18
2022-10-09T08:07:09.466Z,11.13
2022-10-09T08:12:13.405Z,11.60
2022-10-09T08:17:15.847Z,10.32
2022-10-09T08:22:18.392Z,9.30
2022-10-09T08:27:22.136Z,8.97
2022-10-09T08:32:24.532Z,8.75
2022-10-09T08:37:26.899Z,8.30
2022-10-09T08:42:33.236Z,7.93
2022-10-09T08:47:38.861Z,8.13
2022-10-09T08:52:50.049Z,8.15
2022-10-09T08:57:55.708Z,7.28
2022-10-09T09:03:07.475Z,7.55
2022-10-09T09:08:16.978Z,7.45
2022-10-09T09:13:26.915Z,8.32
2022-10-09T09:18:38.567Z,6.38
2022-10-09T09:23:45.424Z,6.28
2022-10-09T09:28:51.427Z,6.28
2022-10-09T09:33:56.286Z,6.07
2022-10-09T09:44:22.710Z,5.45
2022-10-09T09:49:28.931Z,5.18
2022-10-09T09:54:31.462Z,5.10
2022-10-09T09:59:37.815Z,6.35
2022-10-09T10:04:49.079Z,4.88
2022-10-09T10:10:01.937Z,4.45
2022-10-09T10:15:06.052Z,4.90
2022-10-09T10:20:08.862Z,3.97
2022-10-09T10:25:16.607Z,3.92
2022-10-09T10:30:20.704Z,4.18
2022-10-09T10:35:24.865Z,4.20
2022-10-09T10:40:28.699Z,3.75
2022-10-09T10:45:35.359Z,2.95
2022-10-09T10:50:40.554Z,2.80
2022-10-09T10:55:49.010Z,3.40
2022-10-09T11:00:55.944Z,3.58
2022-10-09T11:06:04.193Z,3.92
2022-10-09T11:11:09.740Z,3.55
2022-10-09T11:16:23.886Z,3.00
2022-10-09T11:21:35.070Z,3.28
2022-10-09T11:26:42.848Z,4.00
2022-10-09T11:31:49.415Z,3.28
2022-10-09T11:36:54.181Z,3.20
2022-10-09T11:41:56.799Z,3.03
2022-10-09T11:47:06.509Z,3.05
2022-10-09T11:52:18.409Z,3.03
2022-10-09T11:57:27.741Z,3.28
2022-10-09T12:02:32.155Z,3.15
2022-10-09T12:07:35.333Z,3.17
2022-10-09T12:12:38.862Z,3.05
2022-10-09T12:17:49.704Z,3.20
2022-10-09T12:23:14.407Z,2.65
2022-10-09T12:33:23.308Z,2.72
2022-10-09T12:38:26.948Z,2.92
2022-10-09T12:43:29.828Z,2.53
2022-10-09T12:48:37.419Z,2.70
2022-10-09T12:53:46.571Z,3.22
2022-10-09T12:58:49.000Z,2.20
2022-10-09T13:03:56.460Z,2.47
2022-10-09T13:09:00.700Z,2.58
2022-10-09T13:14:03.095Z,3.53
2022-10-09T13:19:20.836Z,2.80
2022-10-09T13:24:24.224Z,2.42
2022-10-09T13:29:26.660Z,2.88
2022-10-09T13:34:30.459Z,2.35
2022-10-09T13:39:32.820Z,2.90
2022-10-09T13:44:35.558Z,2.78
2022-10-09T13:49:39.506Z,3.42
2022-10-09T13:54:42.048Z,3.10
2022-10-09T13:59:44.428Z,2.85
2022-10-09T14:04:48.183Z,2.53
2022-10-09T14:09:50.582Z,2.85
2022-10-09T14:14:53.967Z,3.10
2022-10-09T14:19:57.751Z,3.55
2022-10-09T14:25:00.151Z,3.10
2022-10-09T14:30:02.898Z,2.80
2022-10-09T14:35:07.245Z,2.80
2022-10-09T14:40:10.171Z,2.72
2022-10-09T14:45:12.508Z,3.55
2022-10-09T14:50:16.385Z,3.80
2022-10-09T14:55:18.782Z,2.33
2022-10-09T15:00:21.200Z,2.30
2022-10-09T15:05:25.253Z,2.43
2022-10-09T15:10:27.662Z,2.85
2022-10-09T15:15:32.731Z,3.50
2022-10-09T15:20:36.616Z,2.80
2022-10-09T15:25:39.036Z,2.65
2022-10-09T15:30:44.727Z,2.90
2022-10-09T15:35:48.782Z,2.15
2022-10-09T15:40:52.194Z,2.10
2022-10-09T15:46:01.477Z,2.33
2022-10-09T15:51:07.038Z,2.35
2022-10-09T15:56:10.428Z,1.90
2022-10-09T16:01:14.477Z,2.20
2022-10-09T16:06:19.672Z,2.22
2022-10-09T16:11:25.148Z,2.17
2022-10-09T16:16:29.297Z,2.10
2022-10-09T16:21:33.140Z,2.47
2022-10-09T16:26:35.575Z,2.47
2022-10-09T16:31:37.922Z,2.30
2022-10-09T16:36:41.627Z,1.97
2022-10-09T16:41:44.009Z,2.10
2022-10-09T16:47:14.068Z,1.90
2022-10-09T16:52:17.809Z,2.00
2022-10-09T16:57:20.243Z,2.47
2022-10-09T17:02:22.700Z,3.77
2022-10-09T17:07:26.408Z,4.68
2022-10-09T17:12:30.789Z,10.35
2022-10-09T17:17:33.306Z,4.95
2022-10-09T17:22:37.206Z,3.80
2022-10-09T17:27:39.687Z,3.15
2022-10-09T17:32:42.045Z,3.20
2022-10-09T17:37:45.778Z,3.10
2022-10-09T17:42:48.436Z,3.20
2022-10-09T17:47:51.176Z,3.10
2022-10-09T17:52:54.999Z,3.17
2022-10-09T17:57:57.811Z,3.00
2022-10-09T18:03:00.219Z,3.03
2022-10-09T18:08:03.994Z,3.28
2022-10-09T18:13:06.939Z,2.97
2022-10-09T18:18:09.578Z,3.67
2022-10-09T18:23:13.577Z,4.03
2022-10-09T18:28:16.108Z,3.97
2022-10-09T18:33:19.893Z,3.77
2022-10-09T18:38:23.639Z,4.65
2022-10-09T18:43:26.158Z,4.28
2022-10-09T18:48:29.877Z,4.18
2022-10-09T18:53:34.478Z,4.30
2022-10-09T18:58:37.140Z,4.30
2022-10-09T19:03:44.816Z,5.10
2022-10-09T19:08:52.111Z,4.80
2022-10-09T19:13:57.568Z,4.78
2022-10-09T19:19:00.159Z,4.50
2022-10-09T19:24:07.035Z,4.53
2022-10-09T19:29:09.597Z,4.43
2022-10-09T19:34:12.087Z,5.10
2022-10-09T19:39:16.179Z,6.00
2022-10-09T19:44:18.853Z,5.85
2022-10-09T19:49:24.591Z,5.87
2022-10-09T19:54:28.342Z,6.20
2022-10-09T19:59:31.837Z,6.15
2022-10-09T20:09:38.043Z,6.60
2022-10-09T20:14:40.497Z,6.45
2022-10-09T20:19:45.694Z,6.40
2022-10-09T20:24:49.687Z,6.30
2022-10-09T20:29:53.175Z,6.65
2022-10-09T20:34:57.822Z,6.50
2022-10-09T20:40:01.754Z,7.07
2022-10-09T20:45:04.309Z,6.15
2022-10-09T20:50:07.161Z,7.03
2022-10-09T20:55:11.022Z,6.63
2022-10-09T21:00:13.885Z,7.05
2022-10-09T21:05:16.341Z,7.23
2022-10-09T21:10:20.113Z,8.20
2022-10-09T21:15:23.154Z,7.90
2022-10-09T21:20:25.740Z,7.22
2022-10-09T21:25:29.480Z,8.40
2022-10-09T21:30:31.920Z,7.78
2022-10-09T21:35:39.073Z,7.78
2022-10-09T21:40:43.089Z,9.77
2022-10-09T21:45:45.554Z,7.57
2022-10-09T21:50:47.931Z,8.02
2022-10-09T21:55:51.885Z,8.57
2022-10-09T22:00:57.828Z,8.45
2022-10-09T22:06:00.854Z,7.97
2022-10-09T22:11:05.947Z,7.85
2022-10-09T22:16:09.200Z,7.65
2022-10-09T22:21:13.200Z,7.18
2022-10-09T22:26:18.141Z,8.10
2022-10-09T22:31:21.218Z,7.95
2022-10-09T22:36:24.878Z,7.50
2022-10-09T22:46:31.686Z,8.07
2022-10-09T22:51:34.496Z,8.40
2022-10-09T22:56:37.890Z,8.37
2022-10-09T23:01:42.976Z,8.52
2022-10-09T23:06:45.748Z,7.68
2022-10-09T23:11:48.481Z,8.03
2022-10-09T23:16:52.211Z,8.30
2022-10-09T23:26:56.911Z,6.88
2022-10-09T23:32:00.995Z,7.18
2022-10-09T23:37:03.417Z,7.25
2022-10-09T23:42:05.880Z,6.40
2022-10-09T23:47:09.600Z,7.28
2022-10-09T23:52:11.938Z,7.57
2022-10-09T23:57:14.431Z,6.63
